Time;durP1;ratioP1;P1;durP2;ratioP2;P2;SDS_P1;SDS_P2;PMS_P1;PMS_P2;Temp;Humidity;BMP_temperature;BMP_pressure;BME280_temperature;BME280_humidity;BME280_pressure;Samples;Min_cycle;Max_cycle;Signal;HPM_P1;HPM_P2
2020/12/18 00:01:56;;;;;;;7.93;4.67;;;;;;;;;;5007775;28;21377;-73
2020/12/18 00:04:22;;;;;;;8.37;4.80;;;;;;;;;;4991641;28;20419;-74
2020/12/18 00:06:48;;;;;;;7.00;4.47;;;;;;;;;;5010209;28;20452;-74
2020/12/18 00:09:14;;;;;;;7.07;4.53;;;;;;;;;;5006196;28;20458;-73
2020/12/18 00:11:40;;;;;;;7.80;4.00;;;;;;;;;;4999195;28;20462;-73
2020/12/18 00:14:07;;;;;;;4.60;3.83;;;;;;;;;;5010987;28;20438;-73
2020/12/18 00:16:34;;;;;;;5.65;4.45;;;;;;;;;;4993710;28;20426;-73
2020/12/18 00:18:59;;;;;;;6.30;4.43;;;;;;;;;;4991672;28;20286;-73
2020/12/18 00:21:25;;;;;;;8.48;4.75;;;;;;;;;;4992105;28;20258;-73
2020/12/18 00:23:52;;;;;;;5.88;4.50;;;;;;;;;;5002922;28;20620;-73
2020/12/18 00:26:18;;;;;;;11.40;4.78;;;;;;;;;;5009478;28;20221;-73
2020/12/18 00:28:44;;;;;;;5.13;4.63;;;;;;;;;;5009777;28;20289;-73
2020/12/18 00:31:11;;;;;;;4.70;4.30;;;;;;;;;;5009764;28;20268;-73
2020/12/18 00:33:37;;;;;;;6.78;5.22;;;;;;;;;;4994256;28;20577;-73
2020/12/18 00:36:03;;;;;;;5.90;4.85;;;;;;;;;;4998537;28;20199;-73
2020/12/18 00:38:29;;;;;;;5.20;4.70;;;;;;;;;;5003827;28;20677;-74
2020/12/18 00:40:55;;;;;;;8.40;4.40;;;;;;;;;;5002676;28;20198;-73
2020/12/18 00:43:21;;;;;;;7.00;3.90;;;;;;;;;;4994587;28;20433;-73
2020/12/18 00:45:47;;;;;;;9.30;4.73;;;;;;;;;;4999274;28;20652;-73
2020/12/18 00:48:13;;;;;;;8.70;4.50;;;;;;;;;;4994613;28;20478;-73
2020/12/18 00:50:39;;;;;;;5.47;3.95;;;;;;;;;;4995033;28;20431;-73
2020/12/18 00:53:05;;;;;;;6.97;4.03;;;;;;;;;;5000241;28;20185;-73
2020/12/18 00:55:31;;;;;;;5.10;3.83;;;;;;;;;;5002794;28;20195;-73
2020/12/18 00:57:57;;;;;;;5.40;4.10;;;;;;;;;;5013657;28;20826;-73
2020/12/18 01:00:23;;;;;;;15.40;5.50;;;;;;;;;;5011412;28;20190;-73
2020/12/18 01:02:49;;;;;;;6.85;4.10;;;;;;;;;;5013477;28;20900;-73
2020/12/18 01:05:15;;;;;;;6.00;4.20;;;;;;;;;;5010862;28;20273;-74
2020/12/18 01:07:41;;;;;;;6.80;4.97;;;;;;;;;;5008507;28;20446;-73
2020/12/18 01:10:07;;;;;;;9.88;4.72;;;;;;;;;;5011303;28;20947;-73
2020/12/18 01:12:33;;;;;;;7.60;5.45;;;;;;;;;;5013137;28;20736;-73
2020/12/18 01:14:59;;;;;;;4.83;4.20;;;;;;;;;;4998108;28;20184;-73
2020/12/18 01:17:25;;;;;;;5.30;4.10;;;;;;;;;;4993282;28;20457;-74
2020/12/18 01:19:51;;;;;;;4.73;4.20;;;;;;;;;;4995468;28;20458;-73
2020/12/18 01:22:17;;;;;;;9.82;5.15;;;;;;;;;;4994573;28;20493;-74
2020/12/18 01:24:43;;;;;;;5.33;4.40;;;;;;;;;;5009409;28;20191;-73
2020/12/18 01:27:09;;;;;;;7.55;5.30;;;;;;;;;;4997761;28;20895;-73
2020/12/18 01:29:35;;;;;;;5.85;5.13;;;;;;;;;;4994202;28;20191;-73
2020/12/18 01:32:01;;;;;;;9.33;5.40;;;;;;;;;;4995575;28;20568;-73
2020/12/18 01:34:27;;;;;;;6.45;5.28;;;;;;;;;;5004306;28;20778;-73
2020/12/18 01:36:53;;;;;;;7.97;5.43;;;;;;;;;;5004243;28;20193;-73
2020/12/18 01:39:19;;;;;;;7.37;5.10;;;;;;;;;;5012477;28;20465;-73
2020/12/18 01:41:44;;;;;;;11.80;5.87;;;;;;;;;;5011109;28;20426;-73
2020/12/18 01:44:10;;;;;;;9.73;6.13;;;;;;;;;;5004420;28;21087;-73
2020/12/18 01:46:38;;;;;;;7.25;5.63;;;;;;;;;;4994669;28;20429;-73
2020/12/18 01:49:05;;;;;;;8.05;4.95;;;;;;;;;;5012851;28;20203;-73
2020/12/18 01:51:31;;;;;;;7.40;4.80;;;;;;;;;;5012112;28;20281;-73
2020/12/18 01:53:56;;;;;;;9.20;7.87;;;;;;;;;;5012314;28;20305;-73
2020/12/18 01:56:23;;;;;;;8.17;6.13;;;;;;;;;;5011962;28;20426;-73
2020/12/18 01:58:51;;;;;;;8.57;6.00;;;;;;;;;;5009108;28;20453;-73
2020/12/18 02:01:17;;;;;;;8.88;5.20;;;;;;;;;;4993819;28;20547;-73
2020/12/18 02:03:43;;;;;;;7.45;5.28;;;;;;;;;;5010089;28;20182;-73
2020/12/18 02:06:10;;;;;;;5.93;5.43;;;;;;;;;;5012081;28;20185;-73
2020/12/18 02:08:40;;;;;;;9.10;5.60;;;;;;;;;;5011403;28;20557;-73
2020/12/18 02:11:06;;;;;;;8.43;6.85;;;;;;;;;;5011760;28;20206;-73
2020/12/18 02:13:32;;;;;;;7.57;5.43;;;;;;;;;;4997900;28;20249;-73
2020/12/18 02:15:58;;;;;;;11.37;6.43;;;;;;;;;;5007234;28;20428;-73
2020/12/18 02:18:24;;;;;;;10.60;6.82;;;;;;;;;;5002653;28;20447;-73
2020/12/18 02:20:51;;;;;;;14.15;5.25;;;;;;;;;;5000600;28;20187;-73
2020/12/18 02:23:17;;;;;;;9.80;6.15;;;;;;;;;;5008864;28;20185;-73
2020/12/18 02:25:43;;;;;;;6.88;6.22;;;;;;;;;;5008355;28;20194;-73
2020/12/18 02:28:10;;;;;;;9.52;6.55;;;;;;;;;;5009747;28;20203;-73
2020/12/18 02:30:36;;;;;;;7.60;5.60;;;;;;;;;;5003011;28;20580;-73
2020/12/18 02:33:06;;;;;;;9.88;5.50;;;;;;;;;;5009307;28;20258;-73
2020/12/18 02:35:33;;;;;;;11.23;6.45;;;;;;;;;;4995684;28;20261;-73
2020/12/18 02:37:59;;;;;;;6.78;5.78;;;;;;;;;;5010318;28;20253;-73
2020/12/18 02:40:25;;;;;;;13.50;6.88;;;;;;;;;;4992080;28;20192;-73
2020/12/18 02:42:51;;;;;;;9.50;7.35;;;;;;;;;;5002443;28;20182;-73
2020/12/18 02:45:17;;;;;;;8.82;7.10;;;;;;;;;;5011978;28;20254;-73
2020/12/18 02:47:43;;;;;;;11.30;7.25;;;;;;;;;;5010567;28;20285;-73
2020/12/18 02:50:10;;;;;;;8.55;6.30;;;;;;;;;;5004173;28;20267;-73
2020/12/18 02:52:36;;;;;;;8.13;6.15;;;;;;;;;;5001861;28;20301;-73
2020/12/18 02:55:02;;;;;;;13.68;7.18;;;;;;;;;;5012013;28;20631;-73
2020/12/18 02:57:28;;;;;;;10.65;8.30;;;;;;;;;;5004047;28;20226;-73
2020/12/18 02:59:54;;;;;;;11.20;7.00;;;;;;;;;;4992230;28;20647;-73
2020/12/18 03:02:20;;;;;;;8.97;8.10;;;;;;;;;;4999271;28;20476;-73
2020/12/18 03:04:46;;;;;;;9.33;7.67;;;;;;;;;;5001443;28;20533;-73
2020/12/18 03:07:12;;;;;;;8.13;6.67;;;;;;;;;;5000339;28;20483;-73
2020/12/18 03:09:38;;;;;;;13.32;7.35;;;;;;;;;;5008677;28;20410;-73
2020/12/18 03:12:03;;;;;;;7.80;7.00;;;;;;;;;;5009592;28;20214;-73
2020/12/18 03:14:29;;;;;;;16.57;6.90;;;;;;;;;;5009712;28;20434;-73
2020/12/18 03:16:55;;;;;;;13.50;6.93;;;;;;;;;;4989772;28;20457;-73
2020/12/18 03:19:21;;;;;;;8.83;6.53;;;;;;;;;;4991787;28;20434;-73
2020/12/18 03:21:47;;;;;;;11.70;7.50;;;;;;;;;;5008297;28;20426;-73
2020/12/18 03:24:13;;;;;;;13.83;7.23;;;;;;;;;;5010577;28;20437;-73
2020/12/18 03:26:39;;;;;;;7.20;6.20;;;;;;;;;;4994446;28;20509;-73
2020/12/18 03:29:05;;;;;;;8.53;7.50;;;;;;;;;;4991704;28;20447;-73
2020/12/18 03:31:31;;;;;;;7.38;6.15;;;;;;;;;;5010289;28;20457;-73
2020/12/18 03:33:57;;;;;;;7.73;6.90;;;;;;;;;;4992998;28;20668;-73
2020/12/18 03:36:23;;;;;;;7.93;7.13;;;;;;;;;;5008306;28;20420;-73
2020/12/18 03:38:49;;;;;;;13.07;7.57;;;;;;;;;;5009537;28;21043;-73
2020/12/18 03:41:15;;;;;;;10.23;7.53;;;;;;;;;;5010856;28;20513;-73
2020/12/18 03:43:41;;;;;;;10.53;7.30;;;;;;;;;;5010106;28;20499;-73
2020/12/18 03:46:06;;;;;;;10.48;7.35;;;;;;;;;;4998803;28;20434;-73
2020/12/18 03:48:32;;;;;;;12.30;7.57;;;;;;;;;;5005044;28;20257;-73
2020/12/18 03:50:58;;;;;;;15.60;8.17;;;;;;;;;;5011111;28;20465;-73
2020/12/18 03:53:24;;;;;;;10.20;7.40;;;;;;;;;;5009935;28;20453;-73
2020/12/18 03:55:50;;;;;;;12.27;7.15;;;;;;;;;;4996217;28;20426;-73
2020/12/18 03:58:16;;;;;;;14.02;7.18;;;;;;;;;;4991823;28;20421;-73
2020/12/18 04:00:42;;;;;;;12.50;7.33;;;;;;;;;;4991258;28;20172;-73
2020/12/18 04:03:08;;;;;;;10.00;6.97;;;;;;;;;;4991357;28;21092;-73
2020/12/18 04:05:34;;;;;;;17.00;7.53;;;;;;;;;;4997656;28;20791;-73
2020/12/18 04:08:00;;;;;;;13.37;7.70;;;;;;;;;;5007196;28;20202;-73
2020/12/18 04:10:26;;;;;;;9.90;7.60;;;;;;;;;;5010489;28;21046;-73
2020/12/18 04:12:52;;;;;;;12.23;7.37;;;;;;;;;;5000812;28;20842;-73
2020/12/18 04:15:18;;;;;;;12.23;7.77;;;;;;;;;;5003713;28;20422;-73
2020/12/18 04:17:45;;;;;;;7.10;6.40;;;;;;;;;;4995409;28;20453;-73
2020/12/18 04:20:11;;;;;;;9.93;8.60;;;;;;;;;;4995501;28;20457;-73
2020/12/18 04:22:37;;;;;;;11.90;8.52;;;;;;;;;;5009949;28;20608;-73
2020/12/18 04:25:04;;;;;;;11.52;9.60;;;;;;;;;;5005687;28;20190;-73
2020/12/18 04:27:30;;;;;;;11.93;8.23;;;;;;;;;;5004843;28;20269;-73
2020/12/18 04:29:56;;;;;;;11.20;7.33;;;;;;;;;;5012655;28;20195;-74
2020/12/18 04:32:22;;;;;;;8.30;7.13;;;;;;;;;;5007518;28;20516;-73
2020/12/18 04:34:48;;;;;;;11.87;7.70;;;;;;;;;;5012074;28;20428;-73
2020/12/18 04:37:13;;;;;;;9.33;7.70;;;;;;;;;;5013653;28;20428;-73
2020/12/18 04:39:39;;;;;;;16.20;7.90;;;;;;;;;;5006599;28;20982;-73
2020/12/18 04:42:05;;;;;;;8.73;7.53;;;;;;;;;;5007359;28;20924;-73
2020/12/18 04:44:31;;;;;;;11.93;8.50;;;;;;;;;;5013660;28;20426;-73
2020/12/18 04:46:57;;;;;;;9.48;7.18;;;;;;;;;;5000622;28;20853;-73
2020/12/18 04:49:23;;;;;;;10.05;7.15;;;;;;;;;;5003723;28;20183;-73
2020/12/18 04:51:53;;;;;;;10.77;8.25;;;;;;;;;;5013519;28;20202;-73
2020/12/18 04:54:21;;;;;;;11.85;7.90;;;;;;;;;;5013288;28;20179;-73
2020/12/18 04:56:50;;;;;;;10.90;7.75;;;;;;;;;;5002007;28;20179;-73
2020/12/18 04:59:20;;;;;;;12.52;7.60;;;;;;;;;;4999276;28;20218;-73
2020/12/18 05:01:46;;;;;;;10.88;6.60;;;;;;;;;;5012865;28;20183;-74
2020/12/18 05:04:13;;;;;;;7.82;6.97;;;;;;;;;;5008733;28;20229;-73
2020/12/18 05:06:39;;;;;;;13.80;6.72;;;;;;;;;;5013823;28;20526;-73
2020/12/18 05:09:05;;;;;;;9.80;5.90;;;;;;;;;;5012967;28;20290;-73
2020/12/18 05:11:31;;;;;;;8.00;6.80;;;;;;;;;;5004446;28;20531;-73
2020/12/18 05:13:57;;;;;;;14.30;6.80;;;;;;;;;;5006103;28;20929;-73
2020/12/18 05:16:24;;;;;;;14.83;7.07;;;;;;;;;;5012635;28;20266;-73
2020/12/18 05:18:50;;;;;;;8.38;6.88;;;;;;;;;;4999475;28;20448;-73
2020/12/18 05:21:17;;;;;;;8.38;6.93;;;;;;;;;;5013085;28;20187;-73
2020/12/18 05:23:44;;;;;;;7.95;6.28;;;;;;;;;;4997473;28;20267;-73
2020/12/18 05:26:11;;;;;;;15.73;7.38;;;;;;;;;;5013064;28;20700;-73
2020/12/18 05:28:38;;;;;;;13.77;7.07;;;;;;;;;;4997819;28;20572;-73
2020/12/18 05:31:08;;;;;;;9.88;6.45;;;;;;;;;;4993803;28;20199;-73
2020/12/18 05:33:34;;;;;;;14.15;6.63;;;;;;;;;;5007548;28;20179;-73
2020/12/18 05:36:00;;;;;;;9.68;6.07;;;;;;;;;;5009422;28;20218;-73
2020/12/18 05:38:26;;;;;;;8.93;6.40;;;;;;;;;;5008812;28;20242;-73
2020/12/18 05:40:52;;;;;;;12.50;6.20;;;;;;;;;;4994883;28;20437;-73
2020/12/18 05:43:18;;;;;;;8.03;6.27;;;;;;;;;;5002960;28;20425;-73
2020/12/18 05:45:44;;;;;;;9.20;6.70;;;;;;;;;;5003903;28;20430;-73
2020/12/18 05:48:10;;;;;;;7.60;6.07;;;;;;;;;;5005397;28;20867;-74
2020/12/18 05:50:37;;;;;;;8.90;6.83;;;;;;;;;;5011861;28;20186;-75
2020/12/18 05:53:04;;;;;;;6.78;5.85;;;;;;;;;;5013096;28;20562;-74
2020/12/18 05:55:37;;;;;;;9.57;5.95;;;;;;;;;;5004933;28;20205;-74
2020/12/18 05:58:04;;;;;;;6.50;5.43;;;;;;;;;;4993157;28;20894;-74
2020/12/18 06:00:29;;;;;;;8.60;5.97;;;;;;;;;;5004734;28;20718;-74
2020/12/18 06:02:57;;;;;;;7.00;6.30;;;;;;;;;;5012243;28;20266;-74
2020/12/18 06:05:24;;;;;;;9.45;7.22;;;;;;;;;;5009314;28;20942;-74
2020/12/18 06:07:51;;;;;;;7.13;6.40;;;;;;;;;;5012751;28;20277;-74
2020/12/18 06:10:21;;;;;;;9.00;6.43;;;;;;;;;;5001555;28;20190;-74
2020/12/18 06:12:48;;;;;;;7.82;5.15;;;;;;;;;;4999660;28;20222;-74
2020/12/18 06:15:16;;;;;;;8.00;6.05;;;;;;;;;;5011385;28;20193;-74
2020/12/18 06:17:43;;;;;;;7.10;6.40;;;;;;;;;;5004218;28;20226;-74
2020/12/18 06:20:13;;;;;;;7.30;5.10;;;;;;;;;;5047751;23;20237;-79
2020/12/18 06:22:39;;;;;;;9.73;6.43;;;;;;;;;;5025886;28;20609;-79
2020/12/18 06:25:05;;;;;;;11.38;6.05;;;;;;;;;;5023687;28;20242;-78
2020/12/18 06:27:31;;;;;;;7.32;5.28;;;;;;;;;;5027697;28;20166;-79
2020/12/18 06:30:09;;;;;;;10.57;6.45;;;;;;;;;;5000415;28;20219;-76
2020/12/18 06:32:35;;;;;;;9.82;6.47;;;;;;;;;;4993848;28;20215;-75
2020/12/18 06:35:20;;;;;;;8.10;6.27;;;;;;;;;;5007834;28;20187;-77
2020/12/18 06:37:46;;;;;;;10.50;6.13;;;;;;;;;;5004499;28;20415;-80
2020/12/18 06:40:26;;;;;;;11.23;6.17;;;;;;;;;;4990473;28;20205;-77
2020/12/18 06:42:52;;;;;;;8.48;6.85;;;;;;;;;;5002497;28;20426;-76
2020/12/18 06:45:18;;;;;;;11.13;7.47;;;;;;;;;;5007721;28;20191;-79
2020/12/18 06:47:44;;;;;;;8.17;5.90;;;;;;;;;;5005448;28;20191;-79
2020/12/18 06:50:11;;;;;;;9.87;6.00;;;;;;;;;;5010751;28;20443;-76
2020/12/18 06:52:43;;;;;;;6.82;5.85;;;;;;;;;;5011538;28;20458;-78
2020/12/18 06:55:10;;;;;;;10.18;5.93;;;;;;;;;;5011039;28;20195;-79
2020/12/18 06:57:36;;;;;;;8.70;5.63;;;;;;;;;;5010340;28;20179;-79
2020/12/18 07:00:21;;;;;;;12.82;6.40;;;;;;;;;;5011336;28;20219;-76
2020/12/18 07:02:47;;;;;;;12.05;6.45;;;;;;;;;;4996851;28;20188;-77
2020/12/18 07:05:29;;;;;;;12.27;7.00;;;;;;;;;;4997586;28;20184;-77
2020/12/18 07:07:58;;;;;;;12.93;7.15;;;;;;;;;;4996462;28;20240;-76
2020/12/18 07:10:31;;;;;;;15.07;7.78;;;;;;;;;;4992810;28;20200;-79
2020/12/18 07:12:59;;;;;;;6.82;6.10;;;;;;;;;;4993982;28;20214;-78
2020/12/18 07:15:48;;;;;;;9.85;7.35;;;;;;;;;;5010796;28;20178;-79
2020/12/18 07:18:28;;;;;;;9.13;6.35;;;;;;;;;;5006279;28;20207;-78
2020/12/18 07:20:55;;;;;;;10.93;7.38;;;;;;;;;;5007435;28;20195;-78
2020/12/18 07:23:21;;;;;;;11.07;6.40;;;;;;;;;;5006930;28;20244;-77
2020/12/18 07:25:48;;;;;;;10.05;6.88;;;;;;;;;;5002750;28;20199;-77
2020/12/18 07:28:14;;;;;;;10.75;6.20;;;;;;;;;;4992659;28;20187;-78
2020/12/18 07:30:42;;;;;;;9.80;7.10;;;;;;;;;;4990267;28;20180;-79
2020/12/18 07:33:09;;;;;;;12.63;6.82;;;;;;;;;;4989495;28;20215;-79
2020/12/18 07:35:39;;;;;;;10.30;7.05;;;;;;;;;;5000647;28;20183;-78
2020/12/18 07:38:11;;;;;;;13.68;6.65;;;;;;;;;;4999642;28;20239;-78
2020/12/18 07:40:37;;;;;;;11.70;6.72;;;;;;;;;;4999366;28;20754;-79
2020/12/18 07:43:06;;;;;;;7.05;6.35;;;;;;;;;;4990983;28;20180;-78
2020/12/18 07:45:36;;;;;;;13.07;6.10;;;;;;;;;;4978893;28;20211;-78
2020/12/18 07:48:08;;;;;;;9.30;5.95;;;;;;;;;;4993189;28;20613;-79
2020/12/18 07:50:34;;;;;;;7.05;5.70;;;;;;;;;;4998963;28;20202;-78
2020/12/18 07:53:06;;;;;;;9.87;6.53;;;;;;;;;;4996780;28;20207;-77
2020/12/18 07:55:32;;;;;;;5.53;5.03;;;;;;;;;;4992078;28;20427;-79
2020/12/18 07:57:58;;;;;;;8.60;6.37;;;;;;;;;;4980031;28;20183;-79
2020/12/18 08:00:23;;;;;;;7.97;5.70;;;;;;;;;;4978983;28;20905;-80
2020/12/18 08:02:50;;;;;;;7.60;6.00;;;;;;;;;;4981305;28;20836;-79
2020/12/18 08:05:20;;;;;;;7.30;5.63;;;;;;;;;;4995362;28;21098;-79
2020/12/18 08:07:46;;;;;;;11.75;7.15;;;;;;;;;;4998275;28;20278;-78
2020/12/18 08:10:14;;;;;;;9.05;6.70;;;;;;;;;;4990895;28;20239;-79
2020/12/18 08:12:40;;;;;;;6.50;5.80;;;;;;;;;;4986893;28;20302;-80
2020/12/18 08:15:10;;;;;;;9.02;6.10;;;;;;;;;;4982092;28;20188;-79
2020/12/18 08:17:37;;;;;;;6.13;5.63;;;;;;;;;;4990842;28;20171;-79
2020/12/18 08:20:04;;;;;;;6.93;5.18;;;;;;;;;;4997227;28;20237;-78
2020/12/18 08:22:33;;;;;;;12.02;6.82;;;;;;;;;;4994876;28;20266;-78
2020/12/18 08:25:00;;;;;;;6.43;5.65;;;;;;;;;;5000973;28;20191;-79
2020/12/18 08:27:28;;;;;;;7.85;6.63;;;;;;;;;;5000262;28;20206;-79
2020/12/18 08:29:54;;;;;;;12.02;7.10;;;;;;;;;;4997556;28;20195;-79
2020/12/18 08:32:26;;;;;;;9.45;5.78;;;;;;;;;;4987503;28;20267;-78
2020/12/18 08:34:58;;;;;;;12.77;6.20;;;;;;;;;;4997622;28;20187;-79
2020/12/18 08:37:24;;;;;;;6.30;5.70;;;;;;;;;;4994118;28;20247;-79
2020/12/18 08:39:50;;;;;;;8.43;6.10;;;;;;;;;;4998955;28;20663;-80
2020/12/18 08:42:16;;;;;;;11.77;6.23;;;;;;;;;;4980774;28;20450;-78
2020/12/18 08:44:43;;;;;;;12.98;6.15;;;;;;;;;;4981212;28;20439;-78
2020/12/18 08:47:24;;;;;;;8.13;7.38;;;;;;;;;;4980836;28;20293;-76
2020/12/18 08:49:52;;;;;;;10.07;7.32;;;;;;;;;;5000783;28;20694;-79
2020/12/18 08:52:25;;;;;;;7.78;6.38;;;;;;;;;;4998765;28;20215;-77
2020/12/18 08:55:01;;;;;;;8.05;6.00;;;;;;;;;;4985901;28;20442;-77
2020/12/18 08:57:29;;;;;;;7.65;5.85;;;;;;;;;;4999806;28;20178;-79
2020/12/18 08:59:56;;;;;;;11.23;6.15;;;;;;;;;;4983346;28;20192;-78
2020/12/18 09:02:22;;;;;;;8.77;5.40;;;;;;;;;;4990375;28;20192;-78
2020/12/18 09:05:07;;;;;;;6.18;5.57;;;;;;;;;;5004056;28;20214;-78
2020/12/18 09:07:56;;;;;;;8.68;5.38;;;;;;;;;;5004417;28;20171;-77
2020/12/18 09:10:26;;;;;;;8.40;5.05;;;;;;;;;;4979868;28;20225;-78
2020/12/18 09:12:52;;;;;;;5.70;4.80;;;;;;;;;;4994883;28;20588;-79
2020/12/18 09:15:23;;;;;;;7.35;5.03;;;;;;;;;;5003596;28;20583;-78
2020/12/18 09:17:58;;;;;;;7.95;4.72;;;;;;;;;;4985726;28;20271;-78
2020/12/18 09:20:25;;;;;;;6.20;4.72;;;;;;;;;;4996072;28;20234;-79
2020/12/18 09:22:55;;;;;;;6.22;4.85;;;;;;;;;;4987174;28;20207;-80
2020/12/18 09:25:21;;;;;;;7.10;4.53;;;;;;;;;;5001412;28;20227;-76
2020/12/18 09:27:54;;;;;;;6.10;4.67;;;;;;;;;;4992354;28;20628;-79
2020/12/18 09:30:28;;;;;;;7.18;4.80;;;;;;;;;;4997439;28;20465;-80
2020/12/18 09:33:12;;;;;;;5.50;4.70;;;;;;;;;;4984834;28;20212;-78
2020/12/18 09:35:39;;;;;;;15.02;4.47;;;;;;;;;;4986065;28;20172;-79
2020/12/18 09:38:05;;;;;;;5.45;4.63;;;;;;;;;;4993449;28;20243;-78
2020/12/18 09:40:31;;;;;;;5.75;4.60;;;;;;;;;;4993610;28;20227;-78
2020/12/18 09:42:57;;;;;;;6.65;4.95;;;;;;;;;;4989775;28;20628;-78
2020/12/18 09:45:23;;;;;;;8.40;4.38;;;;;;;;;;4993133;28;20274;-78
2020/12/18 09:47:49;;;;;;;8.38;3.80;;;;;;;;;;4982906;28;20632;-79
2020/12/18 09:50:15;;;;;;;9.43;4.80;;;;;;;;;;4993272;28;20227;-78
2020/12/18 09:52:41;;;;;;;7.10;4.30;;;;;;;;;;4984712;28;20470;-77
2020/12/18 09:55:07;;;;;;;4.32;3.90;;;;;;;;;;4982441;28;20489;-80
2020/12/18 09:57:34;;;;;;;5.93;3.63;;;;;;;;;;4985081;28;20707;-78
2020/12/18 10:00:01;;;;;;;11.52;3.90;;;;;;;;;;4981356;28;20459;-79
2020/12/18 10:02:28;;;;;;;5.45;5.03;;;;;;;;;;4981088;28;20754;-79
2020/12/18 10:04:54;;;;;;;5.30;4.65;;;;;;;;;;4991408;28;20184;-78
2020/12/18 10:07:20;;;;;;;5.32;4.43;;;;;;;;;;4984161;28;20243;-78
2020/12/18 10:09:46;;;;;;;5.85;4.30;;;;;;;;;;4985199;28;20199;-78
2020/12/18 10:12:12;;;;;;;8.93;4.03;;;;;;;;;;4991831;28;20871;-79
2020/12/18 10:14:38;;;;;;;6.13;4.65;;;;;;;;;;4987578;28;20181;-78
2020/12/18 10:17:04;;;;;;;4.65;4.25;;;;;;;;;;4992706;28;20655;-78
2020/12/18 10:19:30;;;;;;;6.78;4.45;;;;;;;;;;4985427;28;20219;-79
2020/12/18 10:21:56;;;;;;;11.37;4.50;;;;;;;;;;4977708;28;20232;-78
2020/12/18 10:24:22;;;;;;;4.87;4.47;;;;;;;;;;4990270;28;20439;-78
2020/12/18 10:26:49;;;;;;;7.60;4.70;;;;;;;;;;4992737;28;20435;-78
2020/12/18 10:29:15;;;;;;;5.45;4.75;;;;;;;;;;4991800;28;20982;-80
2020/12/18 10:31:41;;;;;;;8.68;4.82;;;;;;;;;;4993767;28;20210;-79
2020/12/18 10:34:07;;;;;;;11.00;4.50;;;;;;;;;;4986839;28;20179;-79
2020/12/18 10:36:33;;;;;;;6.20;4.60;;;;;;;;;;4978437;28;20567;-79
2020/12/18 10:38:59;;;;;;;9.35;4.90;;;;;;;;;;4990748;28;20263;-78
2020/12/18 10:41:25;;;;;;;4.72;3.92;;;;;;;;;;4988958;28;20208;-79
2020/12/18 10:43:51;;;;;;;8.33;4.10;;;;;;;;;;4994366;28;20183;-79
2020/12/18 10:46:16;;;;;;;6.65;4.65;;;;;;;;;;4994237;28;20418;-78
2020/12/18 10:48:42;;;;;;;7.73;4.50;;;;;;;;;;4992702;28;20195;-79
2020/12/18 10:51:08;;;;;;;6.23;4.17;;;;;;;;;;5007176;28;20445;-79
2020/12/18 10:53:34;;;;;;;7.83;4.90;;;;;;;;;;4998439;28;20415;-79
2020/12/18 10:56:01;;;;;;;5.00;4.10;;;;;;;;;;5006307;28;20473;-79
2020/12/18 10:58:27;;;;;;;7.13;5.18;;;;;;;;;;5005644;28;20443;-79
2020/12/18 11:00:53;;;;;;;8.07;5.03;;;;;;;;;;4995812;28;20242;-79
2020/12/18 11:03:19;;;;;;;7.80;5.00;;;;;;;;;;4980104;28;20432;-79
2020/12/18 11:05:45;;;;;;;6.18;4.32;;;;;;;;;;4993032;28;20450;-79
2020/12/18 11:08:11;;;;;;;5.50;3.80;;;;;;;;;;4996021;28;20673;-78
2020/12/18 11:10:37;;;;;;;6.07;4.33;;;;;;;;;;4978017;28;20486;-78
2020/12/18 11:13:03;;;;;;;4.97;4.47;;;;;;;;;;4994709;28;20872;-78
2020/12/18 11:15:29;;;;;;;7.97;3.97;;;;;;;;;;4996734;28;20410;-80
2020/12/18 11:17:56;;;;;;;4.40;3.97;;;;;;;;;;4986194;28;20184;-79
2020/12/18 11:20:22;;;;;;;6.22;4.85;;;;;;;;;;4989058;28;20477;-78
2020/12/18 11:22:49;;;;;;;6.00;4.10;;;;;;;;;;4992305;28;20580;-79
2020/12/18 11:25:15;;;;;;;4.68;4.00;;;;;;;;;;4995193;28;20190;-79
2020/12/18 11:27:41;;;;;;;9.60;3.80;;;;;;;;;;4992660;28;20188;-79
2020/12/18 11:30:07;;;;;;;4.05;3.65;;;;;;;;;;4983799;28;20436;-79
2020/12/18 11:32:33;;;;;;;4.10;3.70;;;;;;;;;;4978944;28;20678;-79
2020/12/18 11:34:59;;;;;;;7.90;4.38;;;;;;;;;;4979563;28;20176;-80
2020/12/18 11:37:25;;;;;;;4.30;3.90;;;;;;;;;;4993666;28;20194;-80
2020/12/18 11:39:51;;;;;;;5.33;3.47;;;;;;;;;;4986221;28;21013;-80
2020/12/18 11:42:17;;;;;;;7.20;4.90;;;;;;;;;;4987058;28;20841;-79
2020/12/18 11:44:42;;;;;;;6.47;4.00;;;;;;;;;;4998934;28;20438;-81
2020/12/18 11:47:08;;;;;;;5.03;3.73;;;;;;;;;;5001428;28;20423;-81
2020/12/18 11:49:34;;;;;;;8.10;3.50;;;;;;;;;;5002899;28;20453;-81
2020/12/18 11:52:03;;;;;;;4.27;3.87;;;;;;;;;;5002518;28;20462;-80
2020/12/18 11:54:29;;;;;;;4.90;3.97;;;;;;;;;;4994951;28;20435;-80
2020/12/18 11:56:55;;;;;;;4.33;4.03;;;;;;;;;;4980108;28;20210;-81
2020/12/18 11:59:21;;;;;;;4.97;3.90;;;;;;;;;;4990455;28;20458;-80
2020/12/18 12:01:47;;;;;;;3.60;3.20;;;;;;;;;;4991744;28;20431;-79
2020/12/18 12:04:12;;;;;;;4.85;3.60;;;;;;;;;;4988703;28;20639;-80
2020/12/18 12:06:38;;;;;;;6.00;3.80;;;;;;;;;;4989336;28;20186;-80
2020/12/18 12:09:04;;;;;;;3.80;3.00;;;;;;;;;;4981418;28;20464;-80
2020/12/18 12:11:37;;;;;;;5.53;3.17;;;;;;;;;;4979704;28;20616;-79
2020/12/18 12:14:03;;;;;;;4.78;3.65;;;;;;;;;;4984189;28;20426;-79
2020/12/18 12:16:36;;;;;;;4.40;3.25;;;;;;;;;;4994952;28;20194;-79
2020/12/18 12:19:03;;;;;;;3.47;3.17;;;;;;;;;;5014727;23;20218;-76
2020/12/18 12:21:36;;;;;;;7.93;3.90;;;;;;;;;;4987695;28;20212;-75
2020/12/18 12:24:02;;;;;;;4.95;4.45;;;;;;;;;;4990171;28;20184;-75
2020/12/18 12:26:28;;;;;;;6.05;3.20;;;;;;;;;;4990758;28;20187;-75
2020/12/18 12:28:54;;;;;;;6.25;3.42;;;;;;;;;;4990937;28;20285;-75
2020/12/18 12:31:22;;;;;;;5.57;3.13;;;;;;;;;;4972416;28;20634;-75
2020/12/18 12:33:48;;;;;;;4.05;3.58;;;;;;;;;;4971250;28;20185;-74
2020/12/18 12:36:18;;;;;;;7.43;3.45;;;;;;;;;;4972103;28;20184;-74
2020/12/18 12:38:44;;;;;;;6.10;3.60;;;;;;;;;;4974490;28;20190;-75
2020/12/18 12:41:10;;;;;;;5.40;3.67;;;;;;;;;;4975618;28;20200;-75
2020/12/18 12:43:36;;;;;;;9.13;3.70;;;;;;;;;;4975363;28;20438;-75
2020/12/18 12:46:01;;;;;;;6.10;3.57;;;;;;;;;;4974552;28;20462;-76
2020/12/18 12:48:27;;;;;;;3.90;3.53;;;;;;;;;;4974100;28;20456;-75
2020/12/18 12:50:53;;;;;;;3.67;3.37;;;;;;;;;;4975404;28;20450;-76
2020/12/18 12:53:19;;;;;;;4.10;3.70;;;;;;;;;;4973422;28;20743;-75
2020/12/18 12:55:47;;;;;;;6.70;3.43;;;;;;;;;;4973700;28;20802;-75
2020/12/18 12:58:13;;;;;;;3.95;3.28;;;;;;;;;;4972052;28;20446;-76
2020/12/18 13:00:39;;;;;;;4.95;3.75;;;;;;;;;;4973073;28;20200;-77
2020/12/18 13:03:05;;;;;;;7.07;3.57;;;;;;;;;;4975387;28;21358;-77
2020/12/18 13:05:31;;;;;;;5.65;3.35;;;;;;;;;;4973028;28;20447;-78
2020/12/18 13:07:57;;;;;;;6.07;3.60;;;;;;;;;;4979193;28;20270;-77
2020/12/18 13:10:23;;;;;;;4.43;2.73;;;;;;;;;;4978246;28;20464;-76
2020/12/18 13:12:49;;;;;;;6.90;4.53;;;;;;;;;;4987149;28;20471;-77
2020/12/18 13:15:15;;;;;;;5.37;3.93;;;;;;;;;;4965694;28;20426;-78
2020/12/18 13:17:41;;;;;;;6.17;3.50;;;;;;;;;;4962238;28;20864;-78
2020/12/18 13:20:07;;;;;;;4.90;3.97;;;;;;;;;;4970838;28;20463;-78
2020/12/18 13:22:32;;;;;;;3.70;3.30;;;;;;;;;;4976266;28;20431;-78
2020/12/18 13:24:58;;;;;;;3.67;3.37;;;;;;;;;;4976639;28;20503;-77
2020/12/18 13:27:24;;;;;;;3.33;2.83;;;;;;;;;;4975202;28;20422;-78
2020/12/18 13:29:50;;;;;;;3.30;2.90;;;;;;;;;;4976324;28;20432;-78
2020/12/18 13:32:16;;;;;;;4.20;3.90;;;;;;;;;;4971041;28;20459;-77
2020/12/18 13:34:42;;;;;;;4.90;4.23;;;;;;;;;;4971531;28;20431;-78
2020/12/18 13:37:08;;;;;;;4.80;3.20;;;;;;;;;;4972639;28;20522;-78
2020/12/18 13:39:34;;;;;;;3.17;2.60;;;;;;;;;;4972210;28;20443;-78
2020/12/18 13:42:00;;;;;;;3.60;2.70;;;;;;;;;;4976774;28;20493;-77
2020/12/18 13:44:26;;;;;;;6.25;3.25;;;;;;;;;;4979260;28;20431;-78
2020/12/18 13:46:52;;;;;;;7.50;3.40;;;;;;;;;;4981755;28;20249;-77
2020/12/18 13:49:18;;;;;;;3.35;3.05;;;;;;;;;;4985400;28;20436;-78
2020/12/18 13:51:48;;;;;;;4.90;3.13;;;;;;;;;;4977277;28;20213;-77
2020/12/18 13:54:14;;;;;;;3.38;3.08;;;;;;;;;;4963431;28;20547;-77
2020/12/18 13:56:44;;;;;;;3.10;2.63;;;;;;;;;;4961876;28;20181;-78
2020/12/18 13:59:10;;;;;;;3.97;2.83;;;;;;;;;;4977243;28;20408;-78
2020/12/18 14:01:37;;;;;;;5.33;3.27;;;;;;;;;;4975396;28;20187;-77
2020/12/18 14:04:03;;;;;;;4.40;3.20;;;;;;;;;;4964488;28;20428;-77
2020/12/18 14:06:29;;;;;;;3.20;2.60;;;;;;;;;;4969048;28;20390;-77
2020/12/18 14:08:55;;;;;;;3.90;2.53;;;;;;;;;;4971349;28;20514;-78
2020/12/18 14:11:21;;;;;;;2.93;2.67;;;;;;;;;;4973488;28;20286;-77
2020/12/18 14:13:49;;;;;;;3.13;2.80;;;;;;;;;;4972740;28;20434;-76
2020/12/18 14:16:15;;;;;;;3.83;3.22;;;;;;;;;;4973981;28;20416;-77
2020/12/18 14:18:41;;;;;;;4.07;2.80;;;;;;;;;;4973228;28;20180;-77
2020/12/18 14:21:06;;;;;;;3.77;2.00;;;;;;;;;;4975645;28;20274;-78
2020/12/18 14:23:32;;;;;;;3.87;2.83;;;;;;;;;;4974472;28;20424;-77
2020/12/18 14:25:58;;;;;;;3.03;2.70;;;;;;;;;;4972069;28;20430;-77
2020/12/18 14:28:24;;;;;;;4.70;3.08;;;;;;;;;;4972501;28;20550;-78
2020/12/18 14:30:50;;;;;;;2.33;2.13;;;;;;;;;;4973666;28;20246;-78
2020/12/18 14:33:16;;;;;;;2.90;2.67;;;;;;;;;;4974024;28;20473;-77
2020/12/18 14:35:42;;;;;;;3.90;2.53;;;;;;;;;;4973700;28;20188;-76
2020/12/18 14:38:08;;;;;;;2.70;2.22;;;;;;;;;;4972281;28;21004;-77
2020/12/18 14:40:34;;;;;;;3.50;2.47;;;;;;;;;;4974629;28;20279;-77